Time;durP1;ratioP1;P1;durP2;ratioP2;P2;SDS_P1;SDS_P2;PMS_P1;PMS_P2;Temp;Humidity;BMP_temperature;BMP_pressure;BME280_temperature;BME280_humidity;BME280_pressure;Samples;Min_cycle;Max_cycle;Signal;HPM_P1;HPM_P2
2023/07/21 00:00:15;;;;;;;20.00;18.63;;;13.60;99.90;;;;;;5011553;28;20168;-81
2023/07/21 00:02:45;;;;;;;20.85;19.42;;;13.50;99.90;;;;;;5011590;28;20041;-81
2023/07/21 00:05:12;;;;;;;17.80;16.45;;;13.60;99.90;;;;;;5027960;28;20702;-81
2023/07/21 00:07:37;;;;;;;23.95;22.17;;;13.40;99.90;;;;;;5011368;28;20049;-81
2023/07/21 00:10:08;;;;;;;23.77;22.20;;;13.40;99.90;;;;;;5027715;28;20160;-81
2023/07/21 00:12:40;;;;;;;24.70;23.00;;;13.30;99.90;;;;;;4990002;28;20048;-81
2023/07/21 00:15:06;;;;;;;21.42;19.88;;;13.30;99.90;;;;;;4988499;28;20505;-81
2023/07/21 00:17:36;;;;;;;19.98;18.35;;;13.30;99.90;;;;;;4988228;28;20097;-81
2023/07/21 00:20:11;;;;;;;24.73;23.02;;;13.20;99.90;;;;;;4989095;28;20488;-81
2023/07/21 00:22:37;;;;;;;18.85;17.58;;;13.20;99.90;;;;;;4988436;28;20129;-81
2023/07/21 00:25:05;;;;;;;19.90;18.45;;;13.20;99.90;;;;;;4976750;28;20516;-81
2023/07/21 00:27:34;;;;;;;20.50;18.98;;;13.20;99.90;;;;;;5027237;28;20045;-81
2023/07/21 00:30:00;;;;;;;21.75;20.27;;;13.20;99.90;;;;;;5028841;28;20507;-80
2023/07/21 00:32:25;;;;;;;20.00;18.45;;;13.20;99.90;;;;;;5026845;28;20049;-81
2023/07/21 00:34:52;;;;;;;16.60;15.38;;;13.20;99.90;;;;;;5027436;28;20044;-81
2023/07/21 00:37:17;;;;;;;20.08;18.50;;;13.10;99.90;;;;;;5027805;28;20376;-81
2023/07/21 00:39:44;;;;;;;16.30;14.65;;;13.20;99.90;;;;;;5027465;28;20081;-81
2023/07/21 00:42:11;;;;;;;21.67;20.00;;;13.10;99.90;;;;;;5015422;28;20042;-81
2023/07/21 00:44:36;;;;;;;23.48;21.73;;;13.10;99.90;;;;;;5007491;28;20360;-81
2023/07/21 00:47:03;;;;;;;21.35;19.77;;;13.10;99.90;;;;;;5007224;28;20144;-81
2023/07/21 00:49:31;;;;;;;19.13;17.52;;;13.10;99.90;;;;;;5007766;28;20033;-81
2023/07/21 00:51:57;;;;;;;17.90;16.63;;;13.10;99.90;;;;;;4991275;28;20100;-81
2023/07/21 00:54:23;;;;;;;21.10;19.48;;;13.10;99.90;;;;;;5007556;28;20073;-81
2023/07/21 00:56:49;;;;;;;19.13;17.73;;;13.00;99.90;;;;;;5020657;28;20045;-81
2023/07/21 00:59:17;;;;;;;18.55;17.33;;;13.00;99.90;;;;;;5027083;28;20042;-81
2023/07/21 01:01:42;;;;;;;18.65;16.83;;;12.90;99.90;;;;;;5026702;28;20156;-81
2023/07/21 01:04:08;;;;;;;17.38;15.95;;;12.90;99.90;;;;;;5028694;28;20106;-80
2023/07/21 01:06:37;;;;;;;19.75;18.35;;;13.10;99.90;;;;;;5027061;28;20475;-80
2023/07/21 01:09:04;;;;;;;17.17;16.00;;;12.80;99.90;;;;;;5027210;28;20196;-81
2023/07/21 01:11:31;;;;;;;20.63;19.25;;;12.70;99.90;;;;;;5024439;28;20046;-81
2023/07/21 01:14:02;;;;;;;20.67;19.27;;;12.70;99.90;;;;;;5008648;28;20502;-80
2023/07/21 01:16:29;;;;;;;22.42;20.92;;;12.70;99.90;;;;;;5008368;28;20050;-80
2023/07/21 01:18:56;;;;;;;17.85;16.45;;;12.60;99.90;;;;;;5007084;28;20045;-80
2023/07/21 01:21:37;;;;;;;17.38;16.17;;;12.60;99.90;;;;;;4990994;28;20049;-80
2023/07/21 01:24:09;;;;;;;19.95;18.33;;;12.50;99.90;;;;;;5007541;28;20667;-81
2023/07/21 01:26:39;;;;;;;16.77;15.55;;;12.50;99.90;;;;;;5013375;28;20042;-80
2023/07/21 01:29:07;;;;;;;16.92;15.35;;;12.40;99.90;;;;;;5010536;28;20041;-80
2023/07/21 01:31:35;;;;;;;21.63;20.23;;;12.30;99.90;;;;;;5026331;28;20095;-81
2023/07/21 01:34:03;;;;;;;16.30;15.15;;;12.30;99.90;;;;;;5026966;28;20034;-80
2023/07/21 01:36:30;;;;;;;17.67;16.48;;;12.30;99.90;;;;;;5026989;28;20048;-80
2023/07/21 01:38:56;;;;;;;18.80;17.15;;;12.20;99.90;;;;;;5026861;28;20056;-80
2023/07/21 01:41:23;;;;;;;20.85;19.35;;;12.60;99.90;;;;;;5010436;28;20044;-80
2023/07/21 01:43:49;;;;;;;19.40;17.90;;;12.20;99.90;;;;;;5008222;28;20046;-81
2023/07/21 01:46:15;;;;;;;19.00;17.60;;;12.10;99.90;;;;;;4990711;28;20050;-80
2023/07/21 01:48:41;;;;;;;18.20;16.75;;;12.10;99.90;;;;;;5006939;28;20389;-80
2023/07/21 01:51:07;;;;;;;20.75;19.30;;;12.10;99.90;;;;;;5008137;28;20030;-81
2023/07/21 01:53:37;;;;;;;26.40;24.20;;;12.10;99.90;;;;;;5006972;28;20110;-80
2023/07/21 01:56:09;;;;;;;24.08;22.55;;;12.00;99.90;;;;;;5008728;28;20615;-80
2023/07/21 01:58:37;;;;;;;21.48;20.00;;;12.10;99.90;;;;;;5008455;28;20053;-80
2023/07/21 02:01:05;;;;;;;24.15;22.58;;;12.10;99.90;;;;;;5019658;28;20061;-80
2023/07/21 02:03:32;;;;;;;27.80;26.13;;;11.90;99.90;;;;;;5028076;28;20128;-80
2023/07/21 02:05:57;;;;;;;22.25;20.65;;;11.90;99.90;;;;;;5026714;28;20072;-80
2023/07/21 02:08:23;;;;;;;23.38;21.55;;;11.90;99.90;;;;;;5026744;28;20519;-80
2023/07/21 02:10:49;;;;;;;25.80;23.63;;;11.90;99.90;;;;;;5029217;28;20496;-81
2023/07/21 02:13:15;;;;;;;27.60;25.73;;;11.80;99.90;;;;;;5030067;28;20041;-81
2023/07/21 02:15:41;;;;;;;24.67;23.05;;;11.80;99.90;;;;;;5018853;28;20049;-81
2023/07/21 02:18:07;;;;;;;25.90;24.17;;;11.80;99.90;;;;;;4993988;28;20085;-80
2023/07/21 02:20:32;;;;;;;25.25;23.55;;;11.80;99.90;;;;;;5010133;28;20512;-80
2023/07/21 02:22:59;;;;;;;25.65;23.98;;;11.70;99.90;;;;;;5010149;28;20060;-81
2023/07/21 02:25:25;;;;;;;24.48;22.88;;;12.10;99.90;;;;;;5010442;28;20290;-80
2023/07/21 02:27:50;;;;;;;23.63;22.10;;;11.70;99.90;;;;;;4993638;28;20052;-80
2023/07/21 02:30:16;;;;;;;28.88;27.00;;;11.70;99.90;;;;;;5002637;28;20045;-80
2023/07/21 02:32:43;;;;;;;27.48;25.55;;;11.60;99.90;;;;;;5013227;28;20046;-80
2023/07/21 02:35:09;;;;;;;22.92;21.40;;;11.60;99.90;;;;;;5029684;28;20228;-80
2023/07/21 02:37:36;;;;;;;26.77;25.08;;;11.60;99.90;;;;;;5030984;28;20227;-81
2023/07/21 02:40:03;;;;;;;30.83;28.88;;;11.60;99.90;;;;;;5029911;28;20396;-80
2023/07/21 02:42:29;;;;;;;28.88;26.85;;;11.50;99.90;;;;;;5029764;28;20037;-80
2023/07/21 02:44:55;;;;;;;29.05;27.05;;;11.50;99.90;;;;;;5020297;28;20038;-80
2023/07/21 02:47:20;;;;;;;24.52;22.88;;;11.70;99.90;;;;;;5010911;28;20085;-80
2023/07/21 02:49:46;;;;;;;28.50;26.55;;;11.40;99.90;;;;;;5011007;28;20472;-81
2023/07/21 02:52:12;;;;;;;24.10;22.48;;;11.40;99.90;;;;;;5009668;28;20506;-81
2023/07/21 02:54:38;;;;;;;27.00;25.23;;;11.40;99.90;;;;;;5009559;28;20141;-80
2023/07/21 02:57:04;;;;;;;22.30;20.67;;;11.30;99.90;;;;;;5009709;28;20121;-80
2023/07/21 02:59:30;;;;;;;29.60;27.70;;;11.30;99.90;;;;;;5017331;28;20112;-80
2023/07/21 03:01:56;;;;;;;23.52;22.02;;;11.30;99.90;;;;;;5029434;28;20614;-81
2023/07/21 03:04:24;;;;;;;27.55;25.58;;;11.30;99.90;;;;;;5029430;28;20100;-80
2023/07/21 03:06:50;;;;;;;27.13;25.38;;;11.30;99.90;;;;;;5030360;28;20480;-80
2023/07/21 03:09:16;;;;;;;24.92;23.30;;;11.30;99.90;;;;;;5029420;28;20133;-80
2023/07/21 03:11:41;;;;;;;28.05;26.13;;;11.30;99.90;;;;;;5030333;28;20042;-80
2023/07/21 03:14:09;;;;;;;30.67;28.58;;;11.30;99.90;;;;;;5022001;28;20096;-80
2023/07/21 03:16:36;;;;;;;27.17;25.42;;;11.30;99.90;;;;;;5010486;28;20042;-80
2023/07/21 03:19:01;;;;;;;27.30;25.52;;;11.20;99.90;;;;;;5009139;28;20108;-81
2023/07/21 03:21:27;;;;;;;24.65;22.88;;;11.20;99.90;;;;;;5010429;28;20671;-80
2023/07/21 03:23:53;;;;;;;31.27;29.02;;;11.20;99.90;;;;;;5008313;28;20049;-80
2023/07/21 03:26:20;;;;;;;27.55;25.58;;;11.40;99.90;;;;;;5009141;28;20046;-80
2023/07/21 03:28:45;;;;;;;29.65;27.60;;;11.20;99.90;;;;;;5013989;28;20045;-80
2023/07/21 03:31:11;;;;;;;30.80;28.65;;;11.30;99.90;;;;;;5028356;28;20219;-80
2023/07/21 03:33:37;;;;;;;31.13;29.05;;;11.20;99.90;;;;;;5028597;28;20045;-80
2023/07/21 03:36:04;;;;;;;28.10;26.27;;;11.10;99.90;;;;;;5011967;28;20517;-80
2023/07/21 03:38:37;;;;;;;31.17;29.08;;;11.10;99.90;;;;;;5012325;28;20396;-80
2023/07/21 03:41:05;;;;;;;32.22;30.17;;;11.10;99.90;;;;;;5028163;28;20133;-80
2023/07/21 03:43:31;;;;;;;29.00;27.17;;;11.10;99.90;;;;;;5028356;28;20046;-81
2023/07/21 03:46:01;;;;;;;29.77;27.98;;;11.10;99.90;;;;;;5029490;28;20045;-80
2023/07/21 03:48:27;;;;;;;29.33;27.42;;;11.10;99.90;;;;;;5001177;28;20523;-80
2023/07/21 03:51:01;;;;;;;30.25;28.40;;;11.10;99.90;;;;;;5008711;28;20507;-81
2023/07/21 03:53:27;;;;;;;27.02;25.33;;;11.10;99.90;;;;;;5008470;28;20042;-81
2023/07/21 03:55:54;;;;;;;39.13;36.70;;;11.10;99.90;;;;;;5008081;28;20034;-80
2023/07/21 03:58:21;;;;;;;33.45;31.25;;;11.10;99.90;;;;;;4992089;28;20128;-81
2023/07/21 04:00:47;;;;;;;34.13;31.98;;;11.20;99.90;;;;;;5008345;28;20042;-80
2023/07/21 04:03:13;;;;;;;31.02;29.02;;;11.10;99.90;;;;;;5021017;28;20041;-80
2023/07/21 04:05:39;;;;;;;28.42;26.58;;;11.20;99.90;;;;;;5032129;28;20037;-80
2023/07/21 04:08:05;;;;;;;28.67;26.73;;;11.30;99.90;;;;;;5028938;28;20041;-81
2023/07/21 04:10:31;;;;;;;32.92;30.77;;;11.40;99.90;;;;;;5027652;28;20495;-80
2023/07/21 04:12:57;;;;;;;35.95;33.55;;;11.50;99.90;;;;;;5027884;28;20034;-80
2023/07/21 04:15:26;;;;;;;26.33;24.65;;;11.80;99.90;;;;;;5029076;28;20033;-80
2023/07/21 04:17:53;;;;;;;25.17;23.20;;;11.60;99.90;;;;;;5016852;28;20145;-81
2023/07/21 04:20:19;;;;;;;28.48;26.58;;;11.60;99.90;;;;;;5008041;28;20136;-80
2023/07/21 04:22:45;;;;;;;25.10;23.38;;;11.80;99.90;;;;;;4992017;28;20404;-81
2023/07/21 04:25:11;;;;;;;29.20;27.30;;;11.60;99.90;;;;;;4991362;28;20045;-80
2023/07/21 04:27:38;;;;;;;23.80;22.10;;;11.70;99.90;;;;;;5007854;28;20033;-80
2023/07/21 04:30:04;;;;;;;27.80;25.85;;;11.70;99.90;;;;;;5007923;28;20053;-81
2023/07/21 04:32:30;;;;;;;25.50;23.60;;;11.80;99.90;;;;;;5017167;28;20563;-80
2023/07/21 04:34:56;;;;;;;29.52;27.30;;;11.90;99.90;;;;;;5027231;28;20506;-81
2023/07/21 04:37:22;;;;;;;21.73;20.25;;;12.00;99.90;;;;;;5028924;28;20041;-80
2023/07/21 04:39:48;;;;;;;26.20;24.13;;;12.10;99.90;;;;;;5010521;28;20033;-81
2023/07/21 04:42:16;;;;;;;19.95;18.35;;;12.20;99.90;;;;;;5014111;28;20120;-80
2023/07/21 04:44:44;;;;;;;23.38;21.70;;;12.30;99.90;;;;;;5027383;28;20535;-81
2023/07/21 04:47:10;;;;;;;18.80;17.23;;;12.40;99.90;;;;;;5018217;28;20464;-80
2023/07/21 04:49:36;;;;;;;22.25;20.63;;;12.50;99.90;;;;;;5009034;28;20042;-81
2023/07/21 04:52:02;;;;;;;20.30;18.70;;;12.60;99.90;;;;;;5008815;28;20041;-81
2023/07/21 04:54:28;;;;;;;17.27;15.93;;;12.60;99.90;;;;;;5007126;28;20041;-81
2023/07/21 04:56:54;;;;;;;17.65;16.23;;;12.70;99.90;;;;;;5017216;28;20408;-81
2023/07/21 04:59:20;;;;;;;19.55;17.77;;;12.80;99.90;;;;;;4999189;28;20034;-80
2023/07/21 05:01:46;;;;;;;15.07;13.73;;;12.90;99.90;;;;;;5009020;28;20033;-81
2023/07/21 05:04:14;;;;;;;19.17;17.77;;;13.00;99.90;;;;;;4992848;28;20508;-80
2023/07/21 05:06:43;;;;;;;16.92;15.38;;;13.10;99.90;;;;;;5006915;28;20064;-81
2023/07/21 05:09:10;;;;;;;16.17;14.68;;;13.10;99.90;;;;;;5006586;28;20608;-80
2023/07/21 05:11:35;;;;;;;15.48;13.57;;;13.20;99.90;;;;;;4991195;28;20049;-81
2023/07/21 05:14:03;;;;;;;14.50;13.32;;;13.30;99.90;;;;;;5008486;28;20042;-80
2023/07/21 05:16:29;;;;;;;13.50;12.30;;;13.40;99.90;;;;;;5009681;28;20541;-80
2023/07/21 05:18:55;;;;;;;13.85;12.68;;;13.50;99.90;;;;;;5007658;28;20050;-82
2023/07/21 05:21:20;;;;;;;13.40;12.20;;;13.60;99.90;;;;;;4995212;28;20053;-85
2023/07/21 05:23:46;;;;;;;11.18;9.93;;;13.70;99.90;;;;;;5013281;28;20376;-86
2023/07/21 05:26:11;;;;;;;11.88;10.77;;;14.40;99.90;;;;;;5016687;28;20138;-87
2023/07/21 05:28:38;;;;;;;10.18;8.63;;;14.70;99.90;;;;;;5015804;28;20046;-89
2023/07/21 05:31:04;;;;;;;8.48;7.50;;;15.60;99.90;;;;;;5014014;28;20053;-89
2023/07/21 05:33:30;;;;;;;9.95;9.02;;;16.60;99.90;;;;;;5000464;28;20066;-87
2023/07/21 05:36:07;;;;;;;9.43;8.18;;;17.70;99.90;;;;;;5014981;28;20531;-88
2023/07/21 05:38:34;;;;;;;10.63;7.90;;;18.40;99.90;;;;;;5019855;28;20073;-87
2023/07/21 05:41:00;;;;;;;8.65;7.20;;;19.30;99.90;;;;;;5016108;28;20069;-86
2023/07/21 05:43:26;;;;;;;8.40;5.85;;;20.30;99.90;;;;;;5011587;28;20038;-87
2023/07/21 05:45:52;;;;;;;7.43;5.13;;;21.10;99.90;;;;;;5030267;28;20076;-87
2023/07/21 05:48:17;;;;;;;6.85;5.78;;;22.00;99.90;;;;;;5040831;28;20043;-86
2023/07/21 05:50:43;;;;;;;7.43;6.15;;;22.60;99.90;;;;;;5021619;28;20068;-85
2023/07/21 05:53:09;;;;;;;9.63;8.48;;;23.00;99.90;;;;;;5039670;28;20037;-87
2023/07/21 05:55:34;;;;;;;8.30;4.30;;;23.60;99.90;;;;;;5005459;28;20034;-86
2023/07/21 05:58:00;;;;;;;6.20;3.25;;;23.80;99.90;;;;;;5019472;28;20044;-86
2023/07/21 06:00:26;;;;;;;14.57;13.20;;;24.30;99.90;;;;;;5001264;28;20030;-86
2023/07/21 06:02:52;;;;;;;19.52;17.95;;;24.50;99.90;;;;;;5002785;28;20069;-86
2023/07/21 06:05:18;;;;;;;11.73;10.82;;;25.00;99.20;;;;;;5022739;28;20042;-86
2023/07/21 06:07:45;;;;;;;74.43;69.72;;;25.40;98.70;;;;;;5021416;28;20108;-86
2023/07/21 06:10:11;;;;;;;328.60;306.58;;;25.80;97.40;;;;;;5006718;28;20101;-86
2023/07/21 06:12:37;;;;;;;536.55;498.20;;;26.00;96.80;;;;;;4998747;28;20069;-85
2023/07/21 06:15:08;;;;;;;753.22;696.22;;;26.30;96.40;;;;;;5002030;28;20033;-86
2023/07/21 06:17:33;;;;;;;765.17;707.00;;;26.40;96.40;;;;;;5033875;28;20462;-86
2023/07/21 06:20:00;;;;;;;813.20;748.97;;;26.50;95.70;;;;;;5021441;28;20042;-86
2023/07/21 06:22:26;;;;;;;905.70;825.55;;;26.60;96.30;;;;;;5037664;28;20049;-85
2023/07/21 06:24:52;;;;;;;978.70;887.05;;;27.10;95.80;;;;;;5020375;28;20114;-86
2023/07/21 06:27:18;;;;;;;1093.75;972.78;;;27.40;95.30;;;;;;5037633;28;20488;-86
2023/07/21 06:29:44;;;;;;;1103.00;982.45;;;27.60;93.80;;;;;;5039523;28;20060;-84
2023/07/21 06:32:09;;;;;;;1467.53;999.90;;;28.00;94.10;;;;;;5002943;28;20034;-86
2023/07/21 06:34:36;;;;;;;1435.70;999.90;;;27.80;93.80;;;;;;5014448;28;20081;-83
2023/07/21 06:37:02;;;;;;;1599.30;999.90;;;28.10;94.50;;;;;;4995117;28;20440;-84
2023/07/21 06:39:28;;;;;;;1699.82;999.90;;;28.20;93.60;;;;;;4999811;28;20049;-86
2023/07/21 06:41:53;;;;;;;1860.80;999.90;;;28.40;94.30;;;;;;4999600;28;20434;-84
2023/07/21 06:44:20;;;;;;;1775.45;999.90;;;29.10;93.70;;;;;;5012249;28;20038;-84
2023/07/21 06:46:49;;;;;;;1601.78;999.90;;;29.40;93.70;;;;;;4995119;28;20038;-85
2023/07/21 06:49:15;;;;;;;1999.90;999.90;;;29.70;92.30;;;;;;5011506;28;20061;-84
2023/07/21 06:51:40;;;;;;;1642.95;999.90;;;29.50;92.30;;;;;;4994069;28;20042;-84
2023/07/21 06:54:08;;;;;;;1999.90;999.90;;;29.30;92.30;;;;;;5011491;28;20038;-82
2023/07/21 06:56:34;;;;;;;1999.90;999.90;;;29.40;92.80;;;;;;5010391;28;20033;-82
2023/07/21 06:58:59;;;;;;;1905.05;999.90;;;29.70;92.90;;;;;;5015022;28;20116;-82
2023/07/21 07:01:25;;;;;;;1999.90;999.90;;;29.40;92.40;;;;;;5029598;28;20452;-82
2023/07/21 07:03:51;;;;;;;1924.18;999.90;;;29.70;91.60;;;;;;5029947;28;20049;-82
2023/07/21 07:06:17;;;;;;;1999.90;999.90;;;29.80;92.70;;;;;;5029871;28;20272;-83
2023/07/21 07:08:43;;;;;;;1999.90;999.90;;;30.50;91.70;;;;;;5030295;28;20076;-84
2023/07/21 07:11:11;;;;;;;1999.90;999.90;;;30.50;91.40;;;;;;5032664;28;20127;-83
2023/07/21 07:13:37;;;;;;;1999.90;999.90;;;30.50;91.80;;;;;;5029645;28;20129;-83
2023/07/21 07:16:03;;;;;;;1999.90;999.90;;;30.90;92.00;;;;;;5030954;28;20541;-83
2023/07/21 07:18:29;;;;;;;1999.90;999.90;;;31.10;90.70;;;;;;5030222;28;20100;-84
2023/07/21 07:20:56;;;;;;;1999.90;999.90;;;30.60;90.80;;;;;;5014015;28;20404;-84
2023/07/21 07:23:23;;;;;;;1999.90;999.90;;;30.20;90.70;;;;;;5031326;28;20041;-84
2023/07/21 07:25:51;;;;;;;1999.90;999.90;;;30.50;90.50;;;;;;5033269;28;20038;-83
2023/07/21 07:28:18;;;;;;;1999.90;999.90;;;30.40;91.60;;;;;;5014293;28;20044;-83
2023/07/21 07:30:45;;;;;;;1999.90;999.90;;;30.90;90.90;;;;;;5028852;28;20084;-83
2023/07/21 07:33:11;;;;;;;1999.90;999.90;;;30.90;91.00;;;;;;5023984;28;20061;-85
2023/07/21 07:35:45;;;;;;;1999.90;999.90;;;31.00;90.60;;;;;;5009586;28;20165;-84
2023/07/21 07:38:11;;;;;;;1999.90;999.90;;;30.70;90.50;;;;;;4996566;28;20034;-85
2023/07/21 07:40:38;;;;;;;1999.90;999.90;;;31.00;90.50;;;;;;5016427;28;20034;-86
2023/07/21 07:43:04;;;;;;;1999.90;999.90;;;31.10;90.30;;;;;;5013586;28;20056;-83
2023/07/21 07:45:30;;;;;;;1999.90;999.90;;;31.60;90.60;;;;;;5015537;28;20037;-86
2023/07/21 07:47:55;;;;;;;1999.90;999.90;;;31.70;90.40;;;;;;5013903;28;20523;-84
2023/07/21 07:50:21;;;;;;;1999.90;999.90;;;31.80;89.70;;;;;;5012247;28;20118;-85
2023/07/21 07:52:47;;;;;;;1999.90;999.90;;;31.50;88.60;;;;;;5014172;28;20053;-86
2023/07/21 07:55:15;;;;;;;1999.90;999.90;;;31.40;88.30;;;;;;5013434;28;20041;-85
2023/07/21 07:57:40;;;;;;;1999.90;999.90;;;31.10;88.90;;;;;;4994971;28;20065;-84
2023/07/21 08:00:08;;;;;;;1999.90;999.90;;;31.40;90.00;;;;;;5010272;28;20030;-85
2023/07/21 08:02:33;;;;;;;1999.90;999.90;;;31.20;86.60;;;;;;5012783;28;20060;-86
2023/07/21 08:04:59;;;;;;;1948.03;999.90;;;30.40;87.60;;;;;;5018384;28;20041;-86
2023/07/21 08:07:25;;;;;;;1782.85;999.90;;;29.90;88.20;;;;;;5030684;28;20479;-85
2023/07/21 08:09:50;;;;;;;1716.30;999.90;;;30.50;89.70;;;;;;5030272;28;20045;-84
2023/07/21 08:12:17;;;;;;;1756.55;999.90;;;30.80;89.70;;;;;;5012921;28;20041;-85
2023/07/21 08:14:42;;;;;;;1670.28;999.90;;;30.40;89.90;;;;;;5029006;28;20492;-85
2023/07/21 08:17:08;;;;;;;1670.70;999.90;;;30.50;88.80;;;;;;5024813;28;20157;-85
2023/07/21 08:19:34;;;;;;;1958.18;999.90;;;30.60;86.20;;;;;;5010434;28;20046;-84
2023/07/21 08:22:06;;;;;;;1727.82;999.90;;;30.50;88.00;;;;;;4992458;28;20459;-85
2023/07/21 08:24:32;;;;;;;1877.60;999.90;;;30.50;88.00;;;;;;5015962;28;20408;-85
2023/07/21 08:26:59;;;;;;;1800.85;999.90;;;30.90;89.90;;;;;;5016565;28;20041;-84
2023/07/21 08:29:26;;;;;;;1979.03;999.90;;;31.30;89.40;;;;;;5014551;28;20042;-85
2023/07/21 08:31:51;;;;;;;1917.38;999.90;;;31.40;87.50;;;;;;5014809;28;20057;-82
2023/07/21 08:34:17;;;;;;;1938.45;999.90;;;31.00;86.40;;;;;;5026247;28;20042;-86
2023/07/21 08:36:43;;;;;;;1930.60;999.90;;;30.80;88.40;;;;;;5033954;28;20033;-84
2023/07/21 08:39:08;;;;;;;1831.78;999.90;;;30.60;87.00;;;;;;5034617;28;20038;-85
2023/07/21 08:41:36;;;;;;;1888.20;999.90;;;30.50;88.70;;;;;;5030709;28;20491;-82
2023/07/21 08:44:04;;;;;;;1847.43;999.90;;;31.00;89.20;;;;;;5014824;28;20083;-85
2023/07/21 08:46:31;;;;;;;1999.90;999.90;;;31.20;88.10;;;;;;5030261;28;20041;-84
2023/07/21 08:48:59;;;;;;;1873.45;999.90;;;31.20;88.30;;;;;;5029032;28;20128;-84
2023/07/21 08:51:25;;;;;;;1630.70;999.90;;;30.30;87.40;;;;;;5031509;28;20041;-81
2023/07/21 08:53:50;;;;;;;1584.45;999.90;;;29.40;86.70;;;;;;5029428;28;20179;-83
2023/07/21 08:56:17;;;;;;;1357.18;999.90;;;28.60;88.60;;;;;;5031013;28;20496;-81
2023/07/21 08:58:43;;;;;;;1329.32;999.90;;;28.40;89.40;;;;;;5028820;28;20042;-82
2023/07/21 09:01:09;;;;;;;1372.30;999.90;;;28.50;90.10;;;;;;5027734;28;20606;-82
2023/07/21 09:03:35;;;;;;;1271.85;999.90;;;28.50;89.30;;;;;;5020203;28;20045;-83
2023/07/21 09:06:01;;;;;;;1253.72;999.90;;;28.00;88.60;;;;;;5023443;28;20046;-82
2023/07/21 09:08:33;;;;;;;1173.97;999.67;;;27.80;89.50;;;;;;5011529;28;20041;-83
2023/07/21 09:11:03;;;;;;;1058.60;946.97;;;27.40;89.60;;;;;;5030861;28;20033;-84
2023/07/21 09:13:30;;;;;;;994.75;901.60;;;26.70;89.10;;;;;;5019067;28;20084;-82
2023/07/21 09:15:59;;;;;;;957.92;870.30;;;26.00;90.10;;;;;;4991213;28;20121;-82
2023/07/21 09:18:29;;;;;;;992.10;898.20;;;25.90;90.80;;;;;;4991826;28;20062;-83
2023/07/21 09:20:56;;;;;;;917.25;838.75;;;25.80;91.00;;;;;;5009760;28;20121;-83
2023/07/21 09:23:22;;;;;;;890.33;814.95;;;26.00;91.30;;;;;;5011994;28;20510;-81
2023/07/21 09:25:56;;;;;;;889.55;815.33;;;26.30;91.20;;;;;;4995598;28;20033;-82
2023/07/21 09:28:38;;;;;;;942.63;857.30;;;26.50;90.90;;;;;;5013082;28;20504;-83
2023/07/21 09:31:04;;;;;;;903.92;825.08;;;26.10;90.90;;;;;;5012476;28;20034;-86
2023/07/21 09:33:30;;;;;;;894.40;816.97;;;25.90;91.30;;;;;;4995917;28;20053;-82
2023/07/21 09:36:10;;;;;;;846.97;778.38;;;26.20;91.20;;;;;;5025856;28;20046;-82
2023/07/21 09:38:37;;;;;;;834.72;767.40;;;26.00;90.80;;;;;;5019269;28;20396;-84
2023/07/21 09:41:09;;;;;;;840.33;770.53;;;26.10;91.60;;;;;;5012080;28;20156;-83
2023/07/21 09:43:35;;;;;;;880.67;803.97;;;25.70;91.20;;;;;;4996176;28;20038;-84
2023/07/21 09:46:07;;;;;;;830.33;762.47;;;25.40;91.50;;;;;;5012054;28;20184;-84
2023/07/21 09:48:34;;;;;;;802.13;738.23;;;25.20;91.70;;;;;;5011312;28;20103;-85
2023/07/21 09:51:07;;;;;;;751.13;693.70;;;24.90;91.70;;;;;;5029362;28;20041;-84
2023/07/21 09:53:40;;;;;;;645.38;598.05;;;24.80;92.20;;;;;;5031853;28;20112;-82
2023/07/21 09:56:08;;;;;;;608.72;564.78;;;24.50;91.90;;;;;;5031647;28;20037;-82
2023/07/21 09:58:50;;;;;;;544.58;506.55;;;24.70;92.70;;;;;;5032155;28;20498;-82
2023/07/21 10:01:17;;;;;;;404.87;379.47;;;24.80;92.40;;;;;;5014352;28;20037;-83
2023/07/21 10:03:44;;;;;;;473.75;442.35;;;24.70;91.80;;;;;;5014361;28;20182;-82
2023/07/21 10:06:10;;;;;;;406.55;381.40;;;25.00;92.20;;;;;;5012003;28;20411;-83
2023/07/21 10:08:36;;;;;;;340.08;319.65;;;25.20;91.30;;;;;;5011455;28;20034;-83
2023/07/21 10:11:04;;;;;;;485.48;453.40;;;25.20;90.80;;;;;;5012167;28;20500;-83
2023/07/21 10:13:32;;;;;;;435.15;407.67;;;25.40;91.60;;;;;;5010514;28;20125;-83
2023/07/21 10:16:06;;;;;;;483.10;451.40;;;25.40;90.90;;;;;;5010904;28;20472;-82
2023/07/21 10:18:32;;;;;;;453.00;423.70;;;25.40;90.60;;;;;;5016757;28;20124;-80
2023/07/21 10:20:58;;;;;;;461.83;431.10;;;25.00;91.20;;;;;;5020948;28;20117;-80
2023/07/21 10:23:25;;;;;;;409.98;384.27;;;24.90;91.50;;;;;;5020737;28;20041;-80
2023/07/21 10:25:50;;;;;;;369.10;346.85;;;24.80;91.80;;;;;;5018726;28;20125;-81
2023/07/21 10:28:30;;;;;;;349.23;328.27;;;24.70;91.60;;;;;;5014916;28;20042;-81
2023/07/21 10:31:21;;;;;;;337.27;316.95;;;24.60;91.10;;;;;;5009730;28;20423;-80
2023/07/21 10:34:09;;;;;;;301.92;284.27;;;24.60;92.20;;;;;;5010617;28;20129;-80
2023/07/21 10:37:07;;;;;;;303.95;286.30;;;24.50;91.60;;;;;;5000941;28;20115;-80
2023/07/21 10:39:41;;;;;;;263.50;248.45;;;24.50;91.60;;;;;;4957876;28;20065;-81
2023/07/21 10:42:09;;;;;;;261.83;246.75;;;24.40;91.10;;;;;;5017526;28;20034;-80
2023/07/21 10:44:39;;;;;;;244.95;230.98;;;24.30;91.60;;;;;;5012905;28;20037;-82
2023/07/21 10:47:15;;;;;;;256.80;241.95;;;24.40;91.60;;;;;;5011235;28;20085;-83
2023/07/21 10:49:41;;;;;;;293.17;276.13;;;24.50;92.20;;;;;;5012345;28;20500;-83
2023/07/21 10:52:07;;;;;;;310.08;292.02;;;24.70;92.10;;;;;;5010512;28;20050;-82
2023/07/21 10:54:33;;;;;;;385.83;362.13;;;25.00;91.90;;;;;;5011700;28;20488;-83
2023/07/21 10:57:02;;;;;;;352.42;331.63;;;25.30;92.20;;;;;;5010989;28;20038;-84
2023/07/21 10:59:32;;;;;;;330.60;310.38;;;25.60;91.90;;;;;;5011917;28;20053;-83
2023/07/21 11:01:58;;;;;;;462.58;432.80;;;25.70;91.10;;;;;;5009234;28;20117;-80
2023/07/21 11:04:24;;;;;;;237.15;224.13;;;26.00;91.60;;;;;;5025531;28;20075;-84
2023/07/21 11:06:57;;;;;;;250.02;236.20;;;26.10;90.80;;;;;;5031025;28;20044;-82
2023/07/21 11:09:24;;;;;;;320.98;302.30;;;26.00;90.60;;;;;;5012448;28;20064;-81
2023/07/21 11:11:55;;;;;;;445.33;416.48;;;26.20;91.10;;;;;;5012620;28;20048;-81
2023/07/21 11:14:25;;;;;;;364.95;342.92;;;26.30;91.40;;;;;;5029244;28;20041;-83
2023/07/21 11:16:52;;;;;;;379.23;356.42;;;26.20;91.10;;;;;;5029495;28;20045;-82
2023/07/21 11:19:22;;;;;;;413.52;388.40;;;26.40;91.00;;;;;;5030535;28;20060;-82
2023/07/21 11:21:48;;;;;;;391.95;368.40;;;26.50;91.10;;;;;;5029198;28;20677;-82
2023/07/21 11:24:33;;;;;;;476.70;446.52;;;26.80;91.10;;;;;;5016447;28;20059;-81
2023/07/21 11:27:05;;;;;;;437.15;409.98;;;26.80;89.70;;;;;;4992478;28;20088;-82
2023/07/21 11:29:32;;;;;;;;;;;26.70;89.70;;;;;;5010959;28;20041;-81
2023/07/21 11:31:58;;;;;;;385.20;361.80;;;26.40;89.90;;;;;;5029236;28;19917;-81
2023/07/21 11:34:25;;;;;;;514.88;481.05;;;26.60;90.60;;;;;;5029931;28;20120;-82
2023/07/21 11:36:59;;;;;;;580.90;540.90;;;26.90;90.50;;;;;;5013382;28;20553;-82
2023/07/21 11:39:27;;;;;;;629.88;585.22;;;27.00;90.50;;;;;;5016459;28;20507;-83
2023/07/21 11:41:56;;;;;;;679.25;630.33;;;27.20;89.30;;;;;;5002921;28;20046;-83
2023/07/21 11:44:26;;;;;;;717.58;664.75;;;27.40;90.20;;;;;;4999708;28;20083;-85
2023/07/21 11:46:57;;;;;;;672.28;624.03;;;27.40;89.80;;;;;;5027857;28;20033;-85
2023/07/21 11:49:25;;;;;;;728.60;674.65;;;27.30;90.20;;;;;;5029684;28;20037;-84
2023/07/21 11:51:52;;;;;;;737.28;682.40;;;27.50;90.20;;;;;;5028736;28;20061;-84
2023/07/21 11:54:29;;;;;;;699.78;648.20;;;27.40;90.20;;;;;;5010957;28;20447;-81
2023/07/21 11:56:56;;;;;;;645.03;598.63;;;27.10;87.80;;;;;;5029685;28;20038;-82
2023/07/21 11:59:24;;;;;;;565.10;527.17;;;26.80;90.20;;;;;;5030080;28;20056;-83
2023/07/21 12:01:50;;;;;;;526.10;491.33;;;26.70;90.10;;;;;;5028828;28;20041;-82
2023/07/21 12:04:18;;;;;;;598.55;556.80;;;26.70;88.60;;;;;;5029569;28;20129;-83
2023/07/21 12:06:44;;;;;;;564.55;525.83;;;26.60;88.50;;;;;;5030439;28;20034;-83
2023/07/21 12:09:12;;;;;;;428.70;402.23;;;26.40;87.80;;;;;;5010085;28;20428;-85
2023/07/21 12:11:38;;;;;;;434.60;408.10;;;26.20;88.70;;;;;;5006948;28;20046;-83
2023/07/21 12:14:04;;;;;;;431.17;404.40;;;26.30;89.30;;;;;;4989973;28;20440;-82
2023/07/21 12:16:30;;;;;;;453.98;425.52;;;26.40;88.60;;;;;;5008661;28;20092;-83